Wetterdaten: Woche 01.11.04 - 07.11.04 (KW45)
Datum Zeit Temperatur Luftfeuchte Luftdruck Regenmenge Wind Richtung Taupunkt Windchill
01.11.2004 00:00 10.4 C 81 % 1014.5 hPa 0.0 l/m 0.7 km/h (0 Bft) O-NO 7.4 C 10.4 C
01.11.2004 01:00 10.5 C 81 % 1014.5 hPa 0.0 l/m 1.7 km/h (1 Bft) N 7.3 C 10.5 C
01.11.2004 02:00 10.2 C 83 % 1014.5 hPa 0.0 l/m 1.1 km/h (0 Bft) NO 7.5 C 10.2 C
01.11.2004 03:00 10.0 C 85 % 1013.6 hPa 0.0 l/m 1.3 km/h (1 Bft) NO 7.6 C 9.9 C
01.11.2004 04:00 10.0 C 85 % 1013.5 hPa 0.0 l/m 0.3 km/h (0 Bft) NO 7.6 C 10.0 C
01.11.2004 05:00 9.7 C 88 % 1013.5 hPa 0.0 l/m 0.1 km/h (0 Bft) N 7.8 C 9.7 C
01.11.2004 06:00 9.9 C 88 % 1013.5 hPa 0.0 l/m 0.0 km/h (0 Bft) N 8.0 C 9.9 C
01.11.2004 07:00 9.9 C 88 % 1013.7 hPa 0.0 l/m 0.2 km/h (0 Bft) O 8.0 C 9.9 C
01.11.2004 08:00 10.1 C 88 % 1014.5 hPa 0.0 l/m 0.0 km/h (0 Bft) N 8.2 C 10.1 C
01.11.2004 09:00 10.6 C 87 % 1014.5 hPa 0.0 l/m 0.0 km/h (0 Bft) N 8.5 C 10.6 C
01.11.2004 10:00 10.7 C 87 % 1015.4 hPa 0.0 l/m 0.0 km/h (0 Bft) N 8.7 C 10.7 C
01.11.2004 11:00 11.0 C 86 % 1015.4 hPa 0.0 l/m 0.0 km/h (0 Bft) N 8.8 C 11.0 C
01.11.2004 12:00 11.2 C 85 % 1015.3 hPa 0.0 l/m 0.0 km/h (0 Bft) N 8.8 C 11.2 C
01.11.2004 13:00 11.4 C 83 % 1015.4 hPa 0.0 l/m 0.4 km/h (0 Bft) S 8.7 C 11.4 C
01.11.2004 14:00 11.6 C 82 % 1015.4 hPa 0.0 l/m 0.0 km/h (0 Bft) N 8.5 C 11.6 C
01.11.2004 15:00 11.5 C 83 % 1015.4 hPa 0.0 l/m 0.1 km/h (0 Bft) N 8.7 C 11.5 C
01.11.2004 16:00 11.2 C 85 % 1015.4 hPa 0.0 l/m 1.5 km/h (1 Bft) O-SO 8.8 C 11.2 C
01.11.2004 17:00 10.8 C 85 % 1015.2 hPa 0.0 l/m 0.1 km/h (0 Bft) N 8.3 C 10.8 C
01.11.2004 18:00 10.5 C 87 % 1016.2 hPa 0.0 l/m 0.0 km/h (0 Bft) N 8.4 C 10.5 C
01.11.2004 19:00 10.1 C 89 % 1016.6 hPa 0.0 l/m 2.1 km/h (1 Bft) O 8.4 C 10.1 C
01.11.2004 20:00 10.0 C 92 % 1016.9 hPa 0.0 l/m 0.0 km/h (0 Bft) N 8.7 C 10.0 C
01.11.2004 21:00 9.7 C 94 % 1017.3 hPa 0.0 l/m 2.3 km/h (1 Bft) O 8.7 C 9.6 C
01.11.2004 22:00 9.4 C 96 % 1017.7 hPa 0.0 l/m 1.9 km/h (1 Bft) O 8.7 C 9.3 C
01.11.2004 23:00 8.5 C 96 % 1017.9 hPa 0.0 l/m 0.7 km/h (0 Bft) O 8.0 C 8.5 C
02.11.2004 00:00 8.4 C 98 % 1018.0 hPa 0.0 l/m 1.7 km/h (1 Bft) O 8.1 C 8.3 C
02.11.2004 01:00 8.1 C 98 % 1018.0 hPa 0.0 l/m 0.7 km/h (0 Bft) O 7.8 C 8.1 C
02.11.2004 02:00 7.6 C 99 % 1018.0 hPa 0.0 l/m 0.3 km/h (0 Bft) O 7.4 C 7.6 C
02.11.2004 03:00 8.2 C 99 % 1018.1 hPa 0.3 l/m 0.1 km/h (0 Bft) O 8.1 C 8.2 C
02.11.2004 04:00 8.1 C 100 % 1017.7 hPa 0.0 l/m 0.7 km/h (0 Bft) O 8.1 C 8.0 C
02.11.2004 05:00 8.4 C 100 % 1017.7 hPa 0.0 l/m 0.4 km/h (0 Bft) O 8.4 C 8.3 C
02.11.2004 06:00 8.6 C 100 % 1017.7 hPa 0.0 l/m 0.0 km/h (0 Bft) N 8.6 C 8.6 C
02.11.2004 07:00 8.6 C 100 % 1017.9 hPa 0.0 l/m 0.0 km/h (0 Bft) N 8.6 C 8.6 C
02.11.2004 08:00 8.7 C 100 % 1017.9 hPa 0.0 l/m 0.0 km/h (0 Bft) N 8.7 C 8.7 C
02.11.2004 09:00 9.3 C 99 % 1017.8 hPa 0.0 l/m 0.8 km/h (0 Bft) NW 9.1 C 9.2 C
02.11.2004 10:00 10.4 C 91 % 1017.2 hPa 0.0 l/m 1.0 km/h (0 Bft) NW 8.9 C 10.3 C
02.11.2004 11:00 11.4 C 82 % 1017.1 hPa 0.0 l/m 1.6 km/h (1 Bft) W-NW 8.5 C 11.4 C
02.11.2004 12:00 12.1 C 78 % 1015.6 hPa 0.0 l/m 0.9 km/h (0 Bft) O-SO 8.3 C 12.1 C
02.11.2004 13:00 12.4 C 75 % 1015.6 hPa 0.0 l/m 0.3 km/h (0 Bft) O-NO 8.1 C 12.4 C
02.11.2004 14:00 12.6 C 75 % 1014.9 hPa 0.0 l/m 0.5 km/h (0 Bft) O-NO 8.2 C 12.6 C
02.11.2004 15:00 12.4 C 76 % 1015.2 hPa 0.0 l/m 1.2 km/h (1 Bft) O-NO 8.2 C 12.4 C
02.11.2004 16:00 12.2 C 77 % 1015.1 hPa 0.0 l/m 0.4 km/h (0 Bft) O 8.4 C 12.2 C
02.11.2004 17:00 11.9 C 79 % 1015.3 hPa 0.0 l/m 0.0 km/h (0 Bft) N 8.4 C 11.9 C
02.11.2004 18:00 11.5 C 81 % 1015.8 hPa 0.0 l/m 0.7 km/h (0 Bft) W-NW 8.4 C 11.5 C
02.11.2004 19:00 11.1 C 85 % 1016.5 hPa 0.0 l/m 0.0 km/h (0 Bft) N 8.6 C 11.1 C
02.11.2004 20:00 10.6 C 87 % 1016.5 hPa 0.0 l/m 0.2 km/h (0 Bft) NW 8.5 C 10.6 C
02.11.2004 21:00 10.5 C 88 % 1016.9 hPa 0.0 l/m 0.1 km/h (0 Bft) N 8.5 C 10.5 C
02.11.2004 22:00 10.5 C 87 % 1017.2 hPa 0.0 l/m 0.1 km/h (0 Bft) N 8.4 C 10.5 C
02.11.2004 23:00 10.5 C 88 % 1017.6 hPa 0.0 l/m 0.0 km/h (0 Bft) N 8.6 C 10.5 C
03.11.2004 00:00 10.5 C 89 % 1017.6 hPa 0.0 l/m 0.0 km/h (0 Bft) N 8.7 C 10.5 C
03.11.2004 01:00 10.4 C 90 % 1018.3 hPa 0.0 l/m 0.0 km/h (0 Bft) N 8.7 C 10.4 C
03.11.2004 02:00 10.4 C 91 % 1018.6 hPa 0.0 l/m 0.0 km/h (0 Bft) N 8.9 C 10.4 C
03.11.2004 03:00 10.4 C 91 % 1018.8 hPa 0.0 l/m 0.6 km/h (0 Bft) NO 9.0 C 10.4 C
03.11.2004 04:00 10.4 C 91 % 1019.5 hPa 0.0 l/m 2.0 km/h (1 Bft) O-NO 8.9 C 10.4 C
03.11.2004 05:00 10.3 C 91 % 1019.7 hPa 0.0 l/m 0.0 km/h (0 Bft) N 8.9 C 10.3 C
03.11.2004 06:00 10.3 C 92 % 1019.7 hPa 0.0 l/m 0.0 km/h (0 Bft) N 9.0 C 10.3 C
03.11.2004 07:00 10.4 C 92 % 1020.7 hPa 0.0 l/m 0.0 km/h (0 Bft) N 9.2 C 10.4 C
03.11.2004 08:00 10.9 C 91 % 1020.7 hPa 0.0 l/m 0.0 km/h (0 Bft) N 9.5 C 10.9 C
03.11.2004 09:00 11.5 C 88 % 1021.4 hPa 0.0 l/m 0.0 km/h (0 Bft) N 9.5 C 11.5 C
03.11.2004 10:00 12.3 C 79 % 1021.5 hPa 0.0 l/m 1.5 km/h (1 Bft) O 8.8 C 12.3 C
03.11.2004 11:00 12.9 C 75 % 1021.4 hPa 0.0 l/m 1.0 km/h (0 Bft) O 8.5 C 12.9 C
03.11.2004 12:00 13.7 C 72 % 1020.3 hPa 0.0 l/m 3.6 km/h (1 Bft) O-SO 8.7 C 13.7 C
03.11.2004 13:00 14.2 C 70 % 1019.7 hPa 0.0 l/m 0.7 km/h (0 Bft) N-NO 8.9 C 14.2 C
03.11.2004 14:00 14.3 C 71 % 1019.1 hPa 0.0 l/m 0.3 km/h (0 Bft) O 9.2 C 14.3 C
03.11.2004 15:00 14.8 C 69 % 1019.1 hPa 0.0 l/m 2.3 km/h (1 Bft) O 9.1 C 14.8 C
03.11.2004 16:00 13.9 C 72 % 1019.2 hPa 0.0 l/m 7.3 km/h (2 Bft) O-SO 8.9 C 13.9 C
03.11.2004 17:00 12.0 C 81 % 1019.5 hPa 0.0 l/m 5.8 km/h (2 Bft) O-SO 8.7 C 12.0 C
03.11.2004 18:00 10.0 C 87 % 1019.7 hPa 0.0 l/m 0.6 km/h (0 Bft) O 8.0 C 10.0 C
03.11.2004 19:00 9.2 C 92 % 1019.8 hPa 0.0 l/m 0.2 km/h (0 Bft) O 8.0 C 9.2 C
03.11.2004 20:00 8.5 C 95 % 1019.9 hPa 0.0 l/m 0.3 km/h (0 Bft) O 7.7 C 8.5 C
03.11.2004 21:00 8.0 C 96 % 1020.0 hPa 0.0 l/m 0.0 km/h (0 Bft) N 7.5 C 8.0 C
03.11.2004 22:00 7.7 C 98 % 1020.1 hPa 0.0 l/m 0.0 km/h (0 Bft) N 7.4 C 7.7 C
03.11.2004 23:00 7.3 C 99 % 1020.1 hPa 0.0 l/m 0.0 km/h (0 Bft) N 7.2 C 7.3 C
04.11.2004 00:00 8.1 C 100 % 1021.0 hPa 0.0 l/m 0.0 km/h (0 Bft) N 8.0 C 8.1 C
04.11.2004 01:00 8.7 C 100 % 1021.0 hPa 0.0 l/m 0.0 km/h (0 Bft) N 8.7 C 8.7 C
04.11.2004 02:00 9.3 C 100 % 1020.9 hPa 0.0 l/m 0.0 km/h (0 Bft) N 9.3 C 9.3 C
04.11.2004 03:00 9.6 C 100 % 1020.8 hPa 0.0 l/m 0.0 km/h (0 Bft) N 9.6 C 9.6 C
04.11.2004 04:00 9.4 C 100 % 1020.9 hPa 0.0 l/m 0.0 km/h (0 Bft) N 9.4 C 9.4 C
04.11.2004 05:00 9.3 C 100 % 1020.9 hPa 0.0 l/m 0.0 km/h (0 Bft) N 9.3 C 9.3 C
04.11.2004 06:00 10.1 C 100 % 1020.8 hPa 0.0 l/m 0.0 km/h (0 Bft) N 10.1 C 10.1 C
04.11.2004 07:00 10.0 C 100 % 1021.5 hPa 0.0 l/m 0.0 km/h (0 Bft) N 10.0 C 10.0 C
04.11.2004 08:00 10.5 C 100 % 1022.4 hPa 0.0 l/m 0.0 km/h (0 Bft) N 10.4 C 10.5 C
04.11.2004 09:00 11.2 C 97 % 1022.7 hPa 0.0 l/m 0.0 km/h (0 Bft) N 10.8 C 11.2 C
04.11.2004 10:00 11.6 C 93 % 1022.6 hPa 0.0 l/m 0.0 km/h (0 Bft) N 10.5 C 11.6 C
04.11.2004 11:00 11.8 C 89 % 1022.6 hPa 0.0 l/m 0.0 km/h (0 Bft) N 10.1 C 11.8 C
04.11.2004 12:00 12.2 C 87 % 1022.6 hPa 0.0 l/m 0.0 km/h (0 Bft) N 10.1 C 12.2 C
04.11.2004 13:00 12.6 C 84 % 1022.5 hPa 0.0 l/m 1.2 km/h (1 Bft) W 10.0 C 12.6 C
04.11.2004 14:00 12.8 C 83 % 1022.5 hPa 0.0 l/m 0.1 km/h (0 Bft) N 10.0 C 12.8 C
04.11.2004 15:00 12.9 C 83 % 1022.4 hPa 0.0 l/m 0.0 km/h (0 Bft) N 10.1 C 12.9 C
04.11.2004 16:00 12.6 C 85 % 1022.5 hPa 0.0 l/m 0.5 km/h (0 Bft) O-NO 10.0 C 12.6 C
04.11.2004 17:00 12.3 C 87 % 1022.5 hPa 0.0 l/m 0.0 km/h (0 Bft) N 10.1 C 12.3 C
04.11.2004 18:00 12.1 C 87 % 1023.3 hPa 0.0 l/m 0.0 km/h (0 Bft) N 10.0 C 12.1 C
04.11.2004 19:00 11.9 C 88 % 1023.6 hPa 0.0 l/m 0.0 km/h (0 Bft) N 10.0 C 11.9 C
04.11.2004 20:00 11.7 C 88 % 1023.7 hPa 0.0 l/m 0.0 km/h (0 Bft) N 9.8 C 11.7 C
04.11.2004 21:00 11.5 C 90 % 1023.7 hPa 0.0 l/m 0.0 km/h (0 Bft) N 9.9 C 11.5 C
04.11.2004 22:00 11.5 C 90 % 1023.7 hPa 0.0 l/m 0.0 km/h (0 Bft) N 10.0 C 11.5 C
04.11.2004 23:00 11.5 C 91 % 1023.7 hPa 0.0 l/m 0.0 km/h (0 Bft) N 10.1 C 11.5 C
05.11.2004 00:00 11.4 C 92 % 1023.7 hPa 0.0 l/m 0.5 km/h (0 Bft) SO 10.1 C 11.4 C
05.11.2004 01:00 11.3 C 92 % 1023.7 hPa 0.0 l/m 0.1 km/h (0 Bft) N 10.0 C 11.3 C
05.11.2004 02:00 11.1 C 94 % 1023.7 hPa 0.0 l/m 1.6 km/h (1 Bft) SO 10.1 C 11.1 C
05.11.2004 03:00 10.9 C 94 % 1023.8 hPa 0.0 l/m 1.4 km/h (1 Bft) SO 10.0 C 10.9 C
05.11.2004 04:00 10.8 C 93 % 1023.8 hPa 0.0 l/m 0.8 km/h (0 Bft) O-SO 9.8 C 10.8 C
05.11.2004 05:00 10.9 C 93 % 1023.8 hPa 0.0 l/m 1.0 km/h (0 Bft) O-SO 9.8 C 10.9 C
05.11.2004 06:00 10.9 C 92 % 1024.4 hPa 0.0 l/m 0.6 km/h (0 Bft) SW 9.7 C 10.9 C
05.11.2004 07:00 10.8 C 93 % 1024.9 hPa 0.0 l/m 0.2 km/h (0 Bft) O-SO 9.7 C 10.8 C
05.11.2004 08:00 10.9 C 94 % 1025.8 hPa 0.0 l/m 2.7 km/h (1 Bft) O-SO 10.0 C 10.9 C
05.11.2004 09:00 11.4 C 95 % 1026.1 hPa 0.3 l/m 1.5 km/h (1 Bft) O-SO 10.6 C 11.4 C
05.11.2004 10:00 11.7 C 94 % 1026.8 hPa 0.0 l/m 0.3 km/h (0 Bft) N 10.7 C 11.7 C
05.11.2004 11:00 12.0 C 93 % 1026.7 hPa 0.0 l/m 1.7 km/h (1 Bft) SO 10.9 C 12.0 C
05.11.2004 12:00 12.5 C 90 % 1026.7 hPa 0.0 l/m 0.3 km/h (0 Bft) O-SO 10.9 C 12.5 C
05.11.2004 13:00 12.6 C 85 % 1026.7 hPa 0.0 l/m 0.1 km/h (0 Bft) N 10.2 C 12.6 C
05.11.2004 14:00 13.0 C 83 % 1026.6 hPa 0.0 l/m 0.6 km/h (0 Bft) SO 10.1 C 13.0 C
05.11.2004 15:00 13.9 C 78 % 1026.5 hPa 0.0 l/m 2.1 km/h (1 Bft) O-SO 10.1 C 13.9 C
05.11.2004 16:00 12.9 C 72 % 1026.6 hPa 0.0 l/m 10.1 km/h (2 Bft) W-NW 7.9 C 12.9 C
05.11.2004 17:00 11.9 C 70 % 1026.8 hPa 0.0 l/m 2.0 km/h (1 Bft) W 6.6 C 11.9 C
05.11.2004 18:00 11.1 C 72 % 1027.9 hPa 0.0 l/m 0.2 km/h (0 Bft) N 6.3 C 11.1 C
05.11.2004 19:00 10.3 C 72 % 1028.0 hPa 0.0 l/m 0.0 km/h (0 Bft) N 5.5 C 10.3 C
05.11.2004 20:00 8.7 C 79 % 1028.2 hPa 0.0 l/m 0.0 km/h (0 Bft) N 5.4 C 8.7 C
05.11.2004 21:00 7.6 C 82 % 1028.4 hPa 0.0 l/m 0.2 km/h (0 Bft) W-NW 4.8 C 7.6 C
05.11.2004 22:00 6.7 C 83 % 1028.5 hPa 0.0 l/m 0.4 km/h (0 Bft) O-NO 4.1 C 6.6 C
05.11.2004 23:00 6.7 C 84 % 1028.5 hPa 0.0 l/m 0.0 km/h (0 Bft) N 4.2 C 6.7 C
06.11.2004 00:00 6.3 C 89 % 1028.6 hPa 0.0 l/m 0.0 km/h (0 Bft) N 4.6 C 6.3 C
06.11.2004 01:00 5.8 C 91 % 1028.4 hPa 0.0 l/m 0.1 km/h (0 Bft) N 4.4 C 5.8 C
06.11.2004 02:00 5.7 C 91 % 1027.7 hPa 0.0 l/m 0.0 km/h (0 Bft) N 4.3 C 5.7 C
06.11.2004 03:00 5.4 C 88 % 1027.7 hPa 0.0 l/m 0.4 km/h (0 Bft) NO 3.6 C 5.4 C
06.11.2004 04:00 5.0 C 89 % 1027.7 hPa 0.0 l/m 0.0 km/h (0 Bft) N 3.3 C 5.0 C
06.11.2004 05:00 4.7 C 93 % 1027.2 hPa 0.0 l/m 2.0 km/h (1 Bft) O 3.7 C 4.2 C
06.11.2004 06:00 4.7 C 94 % 1026.7 hPa 0.0 l/m 0.7 km/h (0 Bft) O 3.8 C 4.5 C
06.11.2004 07:00 4.9 C 95 % 1027.1 hPa 0.0 l/m 0.0 km/h (0 Bft) N 4.2 C 4.9 C
06.11.2004 08:00 5.9 C 94 % 1027.6 hPa 0.0 l/m 0.0 km/h (0 Bft) N 5.0 C 5.9 C
06.11.2004 09:00 6.6 C 85 % 1026.5 hPa 0.0 l/m 0.0 km/h (0 Bft) N 4.3 C 6.6 C
06.11.2004 10:00 7.6 C 79 % 1026.3 hPa 0.0 l/m 0.1 km/h (0 Bft) NO 4.2 C 7.6 C
06.11.2004 11:00 8.2 C 75 % 1025.6 hPa 0.0 l/m 0.9 km/h (0 Bft) W-NW 4.1 C 8.1 C
06.11.2004 12:00 8.5 C 73 % 1024.5 hPa 0.0 l/m 0.4 km/h (0 Bft) NW 3.9 C 8.5 C
06.11.2004 13:00 8.6 C 64 % 1024.1 hPa 0.0 l/m 7.6 km/h (2 Bft) W-NW 2.3 C 7.5 C
06.11.2004 14:00 8.8 C 65 % 1024.1 hPa 0.0 l/m 7.8 km/h (2 Bft) W-NW 2.5 C 7.6 C
06.11.2004 15:00 8.3 C 66 % 1024.1 hPa 0.0 l/m 5.3 km/h (1 Bft) W-NW 2.4 C 7.6 C
06.11.2004 16:00 7.9 C 69 % 1024.2 hPa 0.0 l/m 0.2 km/h (0 Bft) W-NW 2.5 C 7.9 C
06.11.2004 17:00 7.4 C 71 % 1024.3 hPa 0.0 l/m 0.8 km/h (0 Bft) W-NW 2.6 C 7.3 C
06.11.2004 18:00 7.1 C 72 % 1024.3 hPa 0.0 l/m 0.2 km/h (0 Bft) N 2.3 C 7.1 C
06.11.2004 19:00 7.1 C 72 % 1024.3 hPa 0.0 l/m 1.2 km/h (1 Bft) W 2.4 C 6.8 C
06.11.2004 20:00 6.9 C 76 % 1024.3 hPa 0.0 l/m 0.0 km/h (0 Bft) N 3.1 C 6.9 C
06.11.2004 21:00 4.8 C 84 % 1024.6 hPa 0.0 l/m 0.0 km/h (0 Bft) N 2.3 C 4.8 C
06.11.2004 22:00 4.7 C 89 % 1024.4 hPa 0.0 l/m 0.0 km/h (0 Bft) N 3.1 C 4.7 C
06.11.2004 23:00 4.4 C 89 % 1023.7 hPa 0.0 l/m 2.0 km/h (1 Bft) O 2.8 C 4.1 C
07.11.2004 00:00 4.4 C 93 % 1023.6 hPa 0.0 l/m 0.7 km/h (0 Bft) O 3.4 C 4.3 C
07.11.2004 01:00 4.9 C 91 % 1023.4 hPa 0.0 l/m 0.6 km/h (0 Bft) O 3.6 C 4.9 C
07.11.2004 02:00 4.9 C 91 % 1022.5 hPa 0.0 l/m 0.2 km/h (0 Bft) O 3.5 C 4.9 C
07.11.2004 03:00 4.9 C 90 % 1022.5 hPa 0.0 l/m 0.0 km/h (0 Bft) N 3.4 C 4.9 C
07.11.2004 04:00 4.9 C 90 % 1021.7 hPa 0.0 l/m 0.4 km/h (0 Bft) O 3.4 C 4.9 C
07.11.2004 05:00 5.0 C 89 % 1021.5 hPa 0.0 l/m 0.2 km/h (0 Bft) O 3.4 C 5.0 C
07.11.2004 06:00 4.8 C 91 % 1021.5 hPa 0.3 l/m 1.6 km/h (1 Bft) O-SO 3.4 C 4.4 C
07.11.2004 07:00 4.6 C 95 % 1021.5 hPa 0.0 l/m 2.4 km/h (1 Bft) O-SO 3.8 C 4.2 C
07.11.2004 08:00 5.2 C 96 % 1021.5 hPa 0.0 l/m 0.3 km/h (0 Bft) O-SO 4.6 C 5.2 C
07.11.2004 09:00 5.4 C 95 % 1021.4 hPa 0.9 l/m 5.4 km/h (1 Bft) O-SO 4.6 C 4.5 C
07.11.2004 10:00 5.6 C 93 % 1021.4 hPa 0.0 l/m 1.4 km/h (1 Bft) O-SO 4.6 C 5.3 C
07.11.2004 11:00 6.7 C 89 % 1021.2 hPa 0.0 l/m 4.5 km/h (1 Bft) O-SO 5.0 C 5.9 C
07.11.2004 12:00 7.5 C 79 % 1020.2 hPa 0.0 l/m 3.1 km/h (1 Bft) W-NW 4.0 C 7.0 C
07.11.2004 13:00 7.8 C 75 % 1020.0 hPa 0.0 l/m 0.5 km/h (0 Bft) N 3.6 C 7.8 C
07.11.2004 14:00 7.7 C 73 % 1020.1 hPa 0.0 l/m 0.4 km/h (0 Bft) W-NW 3.3 C 7.7 C
07.11.2004 15:00 7.5 C 77 % 1020.1 hPa 0.0 l/m 0.4 km/h (0 Bft) W-SW 3.7 C 7.5 C
07.11.2004 16:00 6.9 C 79 % 1020.2 hPa 0.0 l/m 3.7 km/h (1 Bft) O 3.4 C 6.3 C
07.11.2004 17:00 4.1 C 84 % 1021.6 hPa 0.0 l/m 3.4 km/h (1 Bft) O-SO 1.7 C 3.5 C
07.11.2004 18:00 3.0 C 92 % 1022.4 hPa 0.0 l/m 6.8 km/h (2 Bft) O 1.8 C 1.2 C
07.11.2004 19:00 2.1 C 95 % 1022.9 hPa 0.0 l/m 6.4 km/h (2 Bft) O-SO 1.4 C 0.3 C
07.11.2004 20:00 1.1 C 97 % 1023.1 hPa 0.0 l/m 5.1 km/h (1 Bft) O 0.7 C -0.3 C
07.11.2004 21:00 1.4 C 99 % 1023.0 hPa 0.0 l/m 4.5 km/h (1 Bft) O-SO 1.2 C 0.2 C
07.11.2004 22:00 1.4 C 99 % 1023.0 hPa 0.0 l/m 2.5 km/h (1 Bft) O-SO 1.3 C 1.0 C
07.11.2004 23:00 1.7 C 100 % 1022.5 hPa 0.0 l/m 2.2 km/h (1 Bft) O-SO 1.7 C 1.0 C
Min-Datum _ 07.11.04 06.11.04 01.11.04 - 01.11.04 - 07.11.04 07.11.04
_ Min-Zeit 21:05 13:29 04:05 - 00:05 - 21:05 20:56
Minimum _ 0.8 C 62 % 1013.5 hPa - 0.0 km/h (0 Bft) - 0.4 C -1.6 C
Max-Datum _ 03.11.04 02.11.04 06.11.04 07.11.04 05.11.04 - 05.11.04 03.11.04
_ Max-Zeit 15:26 03:23 01:29 09:38 16:35 - 12:05 15:26
Maximum _ 15.3 C 100 % 1028.7 hPa 0.9 l/m 23.1 km/h
W-NW (4 Bft)
- 11.4 C 15.3 C
Durchschnitt _ 9.2 C 87 % 1021.1 hPa #1.9 l/m 1.0 km/h (0 Bft) O-SO 7.2 C 9.1 C

Durchschnitt Minimum Temp.8.9 C
Durchschnitt Maximum Temp.9.6 C
© Kaiko 2004